Bay Bridge — 3FCS5 — position and weather

sailwx.info

Track history (hours):
 
Tides and Currents Weather Stations Pressure Air Temp Water Temp Dewpoint Dewpoint Depression Visibility Wind Speed Wind Dir Waves Ship Positions

Bay Bridge

Last reported at 2016-Jul-16 18:03 UTC. Time now 2016-Jul-23 09:19 UTC.
Position N 29°40' E 122°35'.

Length 267 m; draft 12.2 m.

Type: Ship (hazmat cat A). MMSI: 354120000.

Date/timePositionNaut miles runAvg speedWind from/ knotsBaromVisibWave heightAir tempDewpointWater temp
2016-Jul-16 18:03N 29°40' E 122°35'816.4
2016-Jul-16 17:33N 29°42' E 122°25'1312.6
2016-Jul-16 16:34N 29°49' E 122°13'1312.9
2016-Jul-16 15:33N 29°56' E 122°01'9 1.8
2016-Jul-16 10:32N 29°57' E 121°50'0 0.0
2016-Jul-16 09:14N 29°57' E 121°50'0 0.0
2016-Jul-16 08:26N 29°57' E 121°50'0 0.0
2016-Jul-16 07:32N 29°57' E 121°50'0 0.0
2016-Jul-16 06:32N 29°57' E 121°50'0 0.0
2016-Jul-16 04:26N 29°57' E 121°50'0 0.0
2016-Jul-16 02:32N 29°57' E 121°50'0 0.0
2016-Jul-16 01:26N 29°57' E 121°50'0 0.0
2016-Jul-16 00:32N 29°57' E 121°50'0 0.0
2016-Jul-15 22:26N 29°57' E 121°50'1 1.3
2016-Jul-15 21:32N 29°58' E 121°50'1010.1
2016-Jul-15 20:32N 29°56' E 122°01'1212.5
2016-Jul-15 19:33N 29°50' E 122°13'1111.2
2016-Jul-15 18:33N 29°44' E 122°25'1312.8
2016-Jul-15 17:33N 29°41' E 122°39'0 0.2
2016-Jul-15 16:33N 29°41' E 122°39'0 0.3
2016-Jul-15 15:33N 29°42' E 122°39'0 0.3
2016-Jul-15 14:33N 29°42' E 122°38'3 2.8
2016-Jul-15 13:31N 29°44' E 122°40'1110.8
2016-Jul-15 12:33N 29°51' E 122°50'1110.6
2016-Jul-15 11:33N 29°57' E 122°60'10 9.4
2016-Jul-15 10:32N 30°05' E 123°06'1110.6
2016-Jul-15 09:32N 30°15' E 123°08'2711.1
2016-Jul-15 07:08N 30°41' E 123°12'7711.3
2016-Jul-15 00:17N 31°16' E 121°52'1012.8
2016-Jul-14 23:32N 31°20' E 121°41'2 1.4
2016-Jul-14 22:22N 31°20' E 121°39'0 0.0
2016-Jul-14 21:22N 31°20' E 121°39'0 0.0
2016-Jul-14 15:28N 31°20' E 121°39'0 0.0
2016-Jul-14 06:10N 31°20' E 121°39'0 0.0
2016-Jul-13 23:04N 31°20' E 121°39'1 1.5
2016-Jul-13 22:33N 31°21' E 121°40'10 9.5
2016-Jul-13 21:32N 31°17' E 121°50'  
Track history (hours):
 
Tides and Currents Weather Stations Pressure Air Temp Water Temp Dewpoint Dewpoint Depression Visibility Wind Speed Wind Dir Waves Ship Positions

Bay Bridge

Last reported at 2016-Jul-16 18:03 UTC. Time now 2016-Jul-23 09:19 UTC.
Position N 29°40' E 122°35'.

Length 267 m; draft 12.2 m.

Type: Ship (hazmat cat A). MMSI: 354120000.

Date/timePositionNaut miles runAvg speedWind from/ knotsBaromVisibWave heightAir tempDewpointWater temp
2016-Jul-16 18:03N 29°40' E 122°35'816.4
2016-Jul-16 17:33N 29°42' E 122°25'1312.6
2016-Jul-16 16:34N 29°49' E 122°13'1312.9
2016-Jul-16 15:33N 29°56' E 122°01'9 1.8
2016-Jul-16 10:32N 29°57' E 121°50'0 0.0
2016-Jul-16 09:14N 29°57' E 121°50'0 0.0
2016-Jul-16 08:26N 29°57' E 121°50'0 0.0
2016-Jul-16 07:32N 29°57' E 121°50'0 0.0
2016-Jul-16 06:32N 29°57' E 121°50'0 0.0
2016-Jul-16 04:26N 29°57' E 121°50'0 0.0
2016-Jul-16 02:32N 29°57' E 121°50'0 0.0
2016-Jul-16 01:26N 29°57' E 121°50'0 0.0
2016-Jul-16 00:32N 29°57' E 121°50'0 0.0
2016-Jul-15 22:26N 29°57' E 121°50'1 1.3
2016-Jul-15 21:32N 29°58' E 121°50'1010.1
2016-Jul-15 20:32N 29°56' E 122°01'1212.5
2016-Jul-15 19:33N 29°50' E 122°13'1111.2
2016-Jul-15 18:33N 29°44' E 122°25'1312.8
2016-Jul-15 17:33N 29°41' E 122°39'0 0.2
2016-Jul-15 16:33N 29°41' E 122°39'0 0.3
2016-Jul-15 15:33N 29°42' E 122°39'0 0.3
2016-Jul-15 14:33N 29°42' E 122°38'3 2.8
2016-Jul-15 13:31N 29°44' E 122°40'1110.8
2016-Jul-15 12:33N 29°51' E 122°50'1110.6
2016-Jul-15 11:33N 29°57' E 122°60'10 9.4
2016-Jul-15 10:32N 30°05' E 123°06'1110.6
2016-Jul-15 09:32N 30°15' E 123°08'2711.1
2016-Jul-15 07:08N 30°41' E 123°12'7711.3
2016-Jul-15 00:17N 31°16' E 121°52'1012.8
2016-Jul-14 23:32N 31°20' E 121°41'2 1.4
2016-Jul-14 22:22N 31°20' E 121°39'0 0.0
2016-Jul-14 21:22N 31°20' E 121°39'0 0.0
2016-Jul-14 15:28N 31°20' E 121°39'0 0.0
2016-Jul-14 06:10N 31°20' E 121°39'0 0.0
2016-Jul-13 23:04N 31°20' E 121°39'1 1.5
2016-Jul-13 22:33N 31°21' E 121°40'10 9.5
2016-Jul-13 21:32N 31°17' E 121°50'  

Dump ship's entire track history